Dati Storici

Data ora Umidita' aria (%) Temperatura aria (°C) Rad globale (W/m²) Gonioanemometro (°) Tacoanemometro (m/s) Pioggia (mm)
28-10-2012 04:50 81.5 % 11.093 1.533 56.214 3.093 0
28-10-2012 04:40 83.8 % 11.032 1.366 47.613 1.991 0
28-10-2012 04:30 85.2 % 11.148 1.276 86.837 1.693 0
28-10-2012 04:20 87.2 % 11.279 1.282 83.902 1.092 0
28-10-2012 04:10 89 % 11.412 1.602 40.634 1.64 0
28-10-2012 04:00 90.7 % 11.717 2.295 12.16 2.808 0
28-10-2012 03:50 95.1 % 11.602 3.577 245.026 1.214 0
28-10-2012 03:40 97.2 % 13.061 4.117 8.907 2.594 0
28-10-2012 03:30 97.2 % 13.173 3.348 15.766 1.795 0
28-10-2012 03:20 96.9 % 13.028 3.515 16.763 1.746 0
28-10-2012 03:10 96.9 % 13.005 3.464 10.571 0.648 0
28-10-2012 03:00 96.8 % 12.984 3.515 19.455 0.732 0
28-10-2012 02:50 96.8 % 12.993 3.604 11.59 1.03 0
28-10-2012 02:40 96.6 % 12.929 3.733 18.42 1.386 0
28-10-2012 02:30 96.5 % 13.038 3.861 13.819 0.823 0
28-10-2012 02:20 96.3 % 13.099 3.976 4.938 1.826 0
28-10-2012 02:10 96.4 % 13.313 3.566 30.279 0.328 0
28-10-2012 02:00 96.3 % 13.333 3.592 357.117 0.997 0
28-10-2012 01:50 96.3 % 13.527 2.797 14.22 0.678 0
28-10-2012 01:40 96 % 13.472 1.963 73.318 0.386 0

I dati sono presentati in modo automatico a scopo informativo. In seguito a verifica i dati possono subire modifiche o essere invalidati e non riportati negli archivi definitivi.